createdAt,value
2019-05-09T00:00:54.252Z,76.2
2019-05-09T00:05:59.533Z,76.1
2019-05-09T00:11:06.303Z,76.7
2019-05-09T00:16:09.833Z,77.6
2019-05-09T00:21:16.129Z,77.7
2019-05-09T00:26:23.479Z,77.6
2019-05-09T00:31:28.916Z,77.5
2019-05-09T00:36:36.345Z,77.2
2019-05-09T00:41:43.511Z,77.1
2019-05-09T00:46:49.056Z,77.2
2019-05-09T00:51:56.676Z,78.3
2019-05-09T00:57:03.917Z,78.3
2019-05-09T01:02:09.105Z,78.8
2019-05-09T01:07:16.455Z,79.2
2019-05-09T01:12:22.999Z,79.2
2019-05-09T01:17:28.673Z,79.4
2019-05-09T01:22:35.749Z,79.9
2019-05-09T01:27:42.596Z,79.9
2019-05-09T01:32:48.396Z,80.1
2019-05-09T01:37:55.769Z,81.5
2019-05-09T01:43:01.049Z,81.5
2019-05-09T01:48:05.884Z,81.8
2019-05-09T01:53:13.195Z,81.8
2019-05-09T01:58:18.557Z,81.6
2019-05-09T02:03:25.915Z,81.5
2019-05-09T02:08:30.765Z,81.6
2019-05-09T02:13:36.706Z,83.2
2019-05-09T02:18:43.879Z,83.2
2019-05-09T02:23:49.993Z,84.5
2019-05-09T02:28:56.406Z,85.9
2019-05-09T02:34:04.474Z,85.8
2019-05-09T02:39:11.722Z,88.6
2019-05-09T02:44:20.331Z,88.6
2019-05-09T02:49:28.288Z,89.5
2019-05-09T02:54:34.400Z,90.3
2019-05-09T02:59:41.125Z,90.8
2019-05-09T03:04:50.642Z,91.1
2019-05-09T03:09:58.074Z,91.2
2019-05-09T03:15:03.589Z,90.8
2019-05-09T03:20:11.937Z,91.4
2019-05-09T03:25:19.970Z,91.3
2019-05-09T03:30:24.992Z,91.5
2019-05-09T03:35:30.353Z,92.1
2019-05-09T03:40:33.956Z,92.5
2019-05-09T03:45:40.343Z,93.3
2019-05-09T03:50:45.372Z,93.3
2019-05-09T03:55:50.555Z,93.4
2019-05-09T04:00:57.435Z,93.3
2019-05-09T04:06:07.985Z,93.7
2019-05-09T04:11:03.400Z,93.7
2019-05-09T04:16:10.137Z,94.1
2019-05-09T04:21:17.029Z,94.1
2019-05-09T04:26:22.822Z,94.4
2019-05-09T04:31:30.455Z,95.1
2019-05-09T04:36:37.339Z,95.2
2019-05-09T04:41:42.962Z,95
2019-05-09T04:46:59.725Z,94.9
2019-05-09T04:52:00.156Z,95.7
2019-05-09T04:57:07.144Z,95.8
2019-05-09T05:02:12.699Z,95.7
2019-05-09T05:07:20.514Z,95.9
2019-05-09T05:12:27.507Z,95.9
2019-05-09T05:17:33.421Z,95.6
2019-05-09T05:22:41.141Z,95.9
2019-05-09T05:27:48.486Z,95.9
2019-05-09T05:32:54.403Z,95.9
2019-05-09T05:38:00.716Z,96.2
2019-05-09T05:43:08.111Z,96.1
2019-05-09T05:48:13.964Z,95.3
2019-05-09T05:53:20.920Z,95.8
2019-05-09T05:58:28.044Z,95.8
2019-05-09T06:03:33.337Z,95.9
2019-05-09T06:08:41.040Z,95.4
2019-05-09T06:14:12.537Z,95.3
2019-05-09T06:18:50.107Z,95.3
2019-05-09T06:23:53.500Z,95.2
2019-05-09T06:29:00.260Z,95.2
2019-05-09T06:34:05.249Z,95.2
2019-05-09T06:39:10.935Z,95.1
2019-05-09T06:44:22.668Z,95.6
2019-05-09T06:49:33.706Z,95.5
2019-05-09T06:54:20.168Z,95.6
2019-05-09T06:59:30.052Z,95.6
2019-05-09T07:04:34.921Z,95.6
2019-05-09T07:09:41.042Z,95.5
2019-05-09T07:14:48.362Z,95.5
2019-05-09T07:19:53.840Z,95.8
2019-05-09T07:25:12.457Z,96.5
2019-05-09T07:30:00.587Z,96.9
2019-05-09T07:35:05.541Z,96.8
2019-05-09T07:40:11.159Z,97.4
2019-05-09T07:45:18.564Z,97.4
2019-05-09T07:50:23.897Z,97.6
2019-05-09T07:55:30.097Z,97.5
2019-05-09T08:00:35.258Z,97.5
2019-05-09T08:05:41.248Z,97
2019-05-09T08:10:48.771Z,96.8
2019-05-09T08:15:53.956Z,97.3
2019-05-09T08:21:00.432Z,95.9
2019-05-09T08:26:09.700Z,95.6
2019-05-09T08:31:14.620Z,95.6
2019-05-09T08:36:22.637Z,94.9
2019-05-09T08:41:30.768Z,94.1
2019-05-09T08:46:38.485Z,94
2019-05-09T08:52:20.612Z,94.3
2019-05-09T08:56:48.312Z,94.6
2019-05-09T09:02:23.243Z,94.1
2019-05-09T09:07:00.335Z,94.5
2019-05-09T09:12:30.101Z,94.5
2019-05-09T09:17:08.860Z,95.4
2019-05-09T09:22:14.312Z,95
2019-05-09T09:27:20.931Z,94.4
2019-05-09T09:32:28.746Z,94.5
2019-05-09T09:37:54.016Z,94.4
2019-05-09T09:42:45.069Z,94.4
2019-05-09T09:47:42.567Z,94.3
2019-05-09T09:52:50.949Z,94
2019-05-09T09:57:58.561Z,94
2019-05-09T10:03:03.861Z,94.6
2019-05-09T10:08:18.900Z,95.8
2019-05-09T10:13:14.010Z,96
2019-05-09T10:18:20.923Z,95.7
2019-05-09T10:23:25.992Z,95.7
2019-05-09T10:28:32.759Z,96.1
2019-05-09T10:33:40.230Z,96.2
2019-05-09T10:38:47.538Z,96.2
2019-05-09T10:43:53.145Z,95.2
2019-05-09T10:49:01.124Z,90
2019-05-09T10:54:09.901Z,89
2019-05-09T10:59:14.964Z,88.8
2019-05-09T11:04:20.739Z,90.6
2019-05-09T11:09:28.755Z,90.7
2019-05-09T11:14:42.512Z,93
2019-05-09T11:19:37.437Z,93.2
2019-05-09T11:24:52.955Z,94.3
2019-05-09T11:29:52.230Z,94.9
2019-05-09T11:35:00.148Z,95.2
2019-05-09T11:40:05.112Z,95.6
2019-05-09T11:45:10.289Z,94.7
2019-05-09T11:50:24.492Z,92.5
2019-05-09T11:55:44.075Z,91.9
2019-05-09T12:00:31.856Z,90.2
2019-05-09T12:05:39.690Z,90.5
2019-05-09T12:10:44.742Z,90.5
2019-05-09T12:15:51.596Z,91.7
2019-05-09T12:20:58.525Z,91.7
2019-05-09T12:26:03.950Z,91.3
2019-05-09T12:31:10.452Z,93.4
2019-05-09T12:36:15.567Z,93.3
2019-05-09T12:41:21.974Z,94.8
2019-05-09T12:46:30.067Z,96.2
2019-05-09T12:51:37.042Z,96.2
2019-05-09T12:56:48.267Z,93
2019-05-09T13:01:44.347Z,93.6
2019-05-09T13:06:51.599Z,91.7
2019-05-09T13:11:58.704Z,91.8
2019-05-09T13:17:01.832Z,88.1
2019-05-09T13:22:09.881Z,88.2
2019-05-09T13:27:15.033Z,88.4
2019-05-09T13:32:20.617Z,81.8
2019-05-09T13:37:30.353Z,81.8
2019-05-09T13:42:40.576Z,78.3
2019-05-09T13:47:37.778Z,78.3
2019-05-09T13:52:42.757Z,78.6
2019-05-09T13:57:51.083Z,78.5
2019-05-09T14:02:56.204Z,78.5
2019-05-09T14:08:11.929Z,84.4
2019-05-09T14:13:15.969Z,85.1
2019-05-09T14:18:10.984Z,85
2019-05-09T14:23:18.220Z,87.2
2019-05-09T14:28:29.260Z,86.6
2019-05-09T14:33:34.117Z,85.8
2019-05-09T14:38:44.497Z,86.8
2019-05-09T14:43:42.067Z,85.8
2019-05-09T14:48:50.008Z,84.1
2019-05-09T14:53:55.268Z,84.3
2019-05-09T14:59:00.645Z,84.7
2019-05-09T15:04:01.465Z,88.3
2019-05-09T15:09:10.134Z,90.4
2019-05-09T15:14:19.965Z,91.6
2019-05-09T15:19:25.100Z,91.6
2019-05-09T15:24:34.253Z,93.1
2019-05-09T15:29:41.801Z,93.1
2019-05-09T15:34:46.764Z,93.1
2019-05-09T15:39:51.861Z,93
2019-05-09T15:45:00.640Z,94.8
2019-05-09T15:50:27.804Z,95.1
2019-05-09T15:55:12.875Z,95
2019-05-09T16:00:20.744Z,95.9
2019-05-09T16:05:25.896Z,95.9
2019-05-09T16:10:31.124Z,96.3
2019-05-09T16:15:38.160Z,96.4
2019-05-09T16:20:44.055Z,97
2019-05-09T16:25:53.253Z,97.4
2019-05-09T16:31:00.970Z,97.6
2019-05-09T16:36:06.119Z,97.6
2019-05-09T16:41:11.129Z,97.7
2019-05-09T16:46:18.883Z,97.6
2019-05-09T16:51:19.940Z,97.2
2019-05-09T16:56:24.788Z,97.1
2019-05-09T17:01:33.143Z,97
2019-05-09T17:06:40.684Z,96.9
2019-05-09T17:11:47.866Z,96.8
2019-05-09T17:16:59.427Z,96.9
2019-05-09T17:21:55.093Z,96.9
2019-05-09T17:27:00.580Z,97.8
2019-05-09T17:32:08.497Z,97.8
2019-05-09T17:37:13.513Z,98.5
2019-05-09T17:42:20.737Z,99
2019-05-09T17:47:27.946Z,99
2019-05-09T17:52:27.432Z,99.7
2019-05-09T17:57:32.900Z,99.6
2019-05-09T18:02:40.286Z,99.8
2019-05-09T18:07:48.003Z,99.8
2019-05-09T18:12:53.920Z,99.9
2019-05-09T18:18:01.456Z,99.9
2019-05-09T18:23:09.050Z,99.9
2019-05-09T18:28:14.612Z,99.9
2019-05-09T18:33:22.672Z,99.9
2019-05-09T18:38:30.615Z,99.9
2019-05-09T18:43:35.661Z,99.9
2019-05-09T18:48:40.739Z,99.9
2019-05-09T18:53:48.987Z,99.9
2019-05-09T18:58:54.770Z,99.9
2019-05-09T19:03:59.887Z,99.9
2019-05-09T19:09:04.891Z,99.9
2019-05-09T19:14:10.294Z,99.9
2019-05-09T19:19:14.090Z,99.9
2019-05-09T19:24:19.749Z,99.9
2019-05-09T19:29:24.642Z,99.9
2019-05-09T19:34:29.894Z,99.9
2019-05-09T19:39:35.669Z,99.9
2019-05-09T19:44:40.745Z,99.9
2019-05-09T19:49:47.696Z,99.9
2019-05-09T19:54:52.967Z,99.9
2019-05-09T19:59:58.358Z,99.9
2019-05-09T20:05:03.494Z,99.9
2019-05-09T20:10:08.604Z,99.9
2019-05-09T20:15:13.677Z,99.9
2019-05-09T20:20:19.288Z,99.9
2019-05-09T20:25:24.390Z,99.9
2019-05-09T20:30:29.445Z,99.9
2019-05-09T20:35:33.198Z,99.9
2019-05-09T20:40:38.268Z,99.9
2019-05-09T20:45:43.700Z,99.9
2019-05-09T20:50:48.880Z,99.9
2019-05-09T20:55:55.035Z,99.9
2019-05-09T21:01:00.519Z,99.9
2019-05-09T21:06:07.043Z,99.9
2019-05-09T21:11:12.025Z,99.9
2019-05-09T21:16:17.164Z,99.9
2019-05-09T21:21:22.074Z,99.9
2019-05-09T21:26:28.209Z,99.9
2019-05-09T21:31:33.136Z,99.9
2019-05-09T21:36:38.195Z,99.9
2019-05-09T21:41:43.301Z,99.9
2019-05-09T21:46:48.292Z,99.9
2019-05-09T21:51:53.449Z,99.9
2019-05-09T21:56:58.652Z,99.9
2019-05-09T22:02:03.761Z,99.9
2019-05-09T22:07:09.110Z,99.9
2019-05-09T22:12:13.995Z,99.9
2019-05-09T22:17:19.102Z,99.9
2019-05-09T22:22:24.630Z,99.9
2019-05-09T22:27:29.848Z,99.9
2019-05-09T22:32:34.950Z,99.9
2019-05-09T22:37:40.096Z,99.9
2019-05-09T22:42:45.201Z,99.9
2019-05-09T22:47:50.510Z,99.9
2019-05-09T22:52:55.538Z,99.9
2019-05-09T22:58:00.760Z,99.9
2019-05-09T23:03:05.801Z,99.9
2019-05-09T23:08:11.252Z,99.9
2019-05-09T23:13:16.180Z,99.9
2019-05-09T23:18:21.359Z,99.9
2019-05-09T23:23:26.814Z,99.9
2019-05-09T23:28:31.894Z,99.9
2019-05-09T23:33:36.955Z,99.9
2019-05-09T23:38:42.376Z,99.9
2019-05-09T23:43:47.412Z,99.9
2019-05-09T23:48:52.773Z,99.9
2019-05-09T23:53:58.011Z,99.9
2019-05-09T23:59:03.040Z,99.9
